Time;durP1;ratioP1;P1;durP2;ratioP2;P2;SDS_P1;SDS_P2;PMS_P1;PMS_P2;Temp;Humidity;BMP_temperature;BMP_pressure;BME280_temperature;BME280_humidity;BME280_pressure;Samples;Min_cycle;Max_cycle;Signal;HPM_P1;HPM_P2
2022/12/20 00:01:29;;;;;;;17.77;9.10;;;5.80;99.90;;;;;;5097048;28;20342;-85
2022/12/20 00:03:56;;;;;;;17.57;9.00;;;5.80;99.90;;;;;;5078963;28;20271;-88
2022/12/20 00:08:53;;;;;;;14.37;8.77;;;5.90;99.90;;;;;;5019402;28;20225;-87
2022/12/20 00:11:19;;;;;;;15.30;9.20;;;5.90;99.90;;;;;;5002347;28;20190;-87
2022/12/20 00:13:47;;;;;;;12.63;9.20;;;5.80;99.90;;;;;;5013628;28;20170;-87
2022/12/20 00:16:19;;;;;;;16.60;8.97;;;5.90;99.90;;;;;;5015185;28;21056;-88
2022/12/20 00:18:49;;;;;;;14.87;8.00;;;5.90;99.90;;;;;;5015587;28;20276;-87
2022/12/20 00:21:15;;;;;;;16.50;9.50;;;5.90;99.90;;;;;;4997927;28;20182;-88
2022/12/20 00:23:41;;;;;;;15.07;8.53;;;5.80;99.90;;;;;;5001788;28;20205;-87
2022/12/20 00:26:12;;;;;;;15.70;9.10;;;5.70;99.90;;;;;;5034782;28;20249;-88
2022/12/20 00:28:39;;;;;;;15.33;8.80;;;5.70;99.90;;;;;;5016852;28;20185;-90
2022/12/20 00:31:06;;;;;;;15.10;8.47;;;5.70;99.90;;;;;;5017437;28;20210;-86
2022/12/20 00:33:33;;;;;;;14.67;8.90;;;5.70;99.90;;;;;;5017492;28;21259;-86
2022/12/20 00:35:59;;;;;;;15.27;9.23;;;5.60;99.90;;;;;;5035127;28;20194;-87
2022/12/20 00:38:26;;;;;;;14.63;8.73;;;5.60;99.90;;;;;;5016742;28;20308;-88
2022/12/20 00:41:03;;;;;;;17.10;9.03;;;5.70;99.90;;;;;;5017764;28;20185;-87
2022/12/20 00:43:29;;;;;;;16.50;9.20;;;5.70;99.90;;;;;;5017183;28;20209;-87
2022/12/20 00:45:55;;;;;;;17.50;9.20;;;5.70;99.90;;;;;;5017193;28;20518;-88
2022/12/20 00:48:21;;;;;;;14.03;8.93;;;5.70;99.90;;;;;;5017243;28;20221;-91
2022/12/20 00:50:47;;;;;;;17.97;9.13;;;5.80;99.90;;;;;;5034349;28;20228;-87
2022/12/20 00:53:13;;;;;;;15.60;8.90;;;5.80;99.90;;;;;;5016610;28;20202;-87
2022/12/20 00:55:43;;;;;;;15.30;9.23;;;5.80;99.90;;;;;;5017011;28;20328;-89
2022/12/20 00:58:09;;;;;;;17.10;9.40;;;5.90;99.90;;;;;;5034485;28;20231;-86
2022/12/20 01:00:35;;;;;;;17.73;9.50;;;5.90;99.90;;;;;;5016436;28;20635;-87
2022/12/20 01:03:03;;;;;;;16.10;9.60;;;5.90;99.90;;;;;;5016382;28;20205;-85
2022/12/20 01:05:29;;;;;;;31.87;9.47;;;6.00;99.90;;;;;;5016537;28;21186;-89
2022/12/20 01:07:55;;;;;;;17.63;9.23;;;6.00;99.90;;;;;;5012760;28;20325;-87
2022/12/20 01:10:20;;;;;;;15.53;8.97;;;6.10;99.90;;;;;;5012980;28;20178;-87
2022/12/20 01:12:46;;;;;;;15.27;8.97;;;6.20;99.90;;;;;;5012984;28;20175;-88
2022/12/20 01:15:12;;;;;;;15.70;8.50;;;6.20;99.90;;;;;;5012698;28;20170;-87
2022/12/20 01:17:38;;;;;;;13.90;7.77;;;6.20;99.90;;;;;;5013279;28;20743;-87
2022/12/20 01:20:05;;;;;;;14.97;8.60;;;6.20;99.90;;;;;;5013064;28;20277;-87
2022/12/20 01:22:31;;;;;;;16.50;9.23;;;6.20;99.90;;;;;;5012409;28;20233;-87
2022/12/20 01:24:56;;;;;;;13.83;8.67;;;6.20;99.90;;;;;;5012695;28;20182;-86
2022/12/20 01:27:22;;;;;;;13.47;8.27;;;6.20;99.90;;;;;;5012815;28;20167;-89
2022/12/20 01:29:48;;;;;;;14.33;8.00;;;6.20;99.90;;;;;;5012524;28;20645;-87
2022/12/20 01:32:13;;;;;;;14.90;9.13;;;6.20;99.90;;;;;;5013933;28;20166;-89
2022/12/20 01:34:39;;;;;;;17.03;8.60;;;6.20;99.90;;;;;;5013733;28;20169;-86
2022/12/20 01:37:05;;;;;;;13.53;8.50;;;6.30;99.90;;;;;;5012084;28;20194;-88
2022/12/20 01:39:31;;;;;;;12.53;7.83;;;6.30;99.90;;;;;;5011731;28;20225;-87
2022/12/20 01:41:56;;;;;;;13.20;8.40;;;6.30;99.90;;;;;;5012297;28;20608;-88
2022/12/20 01:44:22;;;;;;;13.03;8.27;;;6.30;99.90;;;;;;5014082;28;20378;-87
2022/12/20 01:46:49;;;;;;;14.23;7.93;;;6.20;99.90;;;;;;5013055;28;20204;-88
2022/12/20 01:49:20;;;;;;;14.33;8.90;;;6.20;99.90;;;;;;5012398;28;20178;-89
2022/12/20 01:51:52;;;;;;;16.80;8.77;;;6.10;99.90;;;;;;4999399;28;20187;-86
2022/12/20 01:54:22;;;;;;;17.63;8.90;;;6.10;99.90;;;;;;5009077;28;21016;-89
2022/12/20 01:56:55;;;;;;;14.33;9.10;;;6.00;99.90;;;;;;5009469;28;20183;-88
2022/12/20 01:59:21;;;;;;;12.03;7.80;;;5.90;99.90;;;;;;5008971;28;21407;-87
2022/12/20 02:01:47;;;;;;;15.40;7.90;;;5.90;99.90;;;;;;5008734;28;20225;-89
2022/12/20 02:04:12;;;;;;;14.53;8.33;;;5.80;99.90;;;;;;5009019;28;20179;-88
2022/12/20 02:06:38;;;;;;;11.73;8.03;;;5.80;99.90;;;;;;5010072;28;20222;-86
2022/12/20 02:09:06;;;;;;;12.93;8.30;;;5.80;99.90;;;;;;4996010;28;20244;-87
2022/12/20 02:12:07;;;;;;;15.50;8.40;;;5.70;99.90;;;;;;5013788;28;20175;-88
2022/12/20 02:15:06;;;;;;;13.60;7.77;;;5.70;99.90;;;;;;4995293;28;20182;-88
2022/12/20 02:17:47;;;;;;;13.57;8.67;;;5.70;99.90;;;;;;5013648;28;20206;-87
2022/12/20 02:20:30;;;;;;;12.73;8.37;;;5.70;99.90;;;;;;4997061;28;20193;-89
2022/12/20 02:22:59;;;;;;;16.97;9.23;;;5.70;99.90;;;;;;5015430;28;20675;-87
2022/12/20 02:25:37;;;;;;;16.27;9.30;;;5.70;99.90;;;;;;5015267;28;20182;-89
2022/12/20 02:28:43;;;;;;;17.80;8.97;;;5.80;99.90;;;;;;5015508;28;20196;-89
2022/12/20 02:31:13;;;;;;;15.87;9.07;;;5.80;99.90;;;;;;4985618;28;20644;-87
2022/12/20 02:33:44;;;;;;;14.30;8.73;;;5.90;99.90;;;;;;5015400;28;20201;-87
2022/12/20 02:36:10;;;;;;;16.20;8.90;;;6.00;99.90;;;;;;5015775;28;20644;-88
2022/12/20 02:38:37;;;;;;;13.53;7.77;;;6.10;99.90;;;;;;5015621;28;20206;-87
2022/12/20 02:41:09;;;;;;;12.90;7.97;;;6.20;99.90;;;;;;5015510;28;20173;-87
2022/12/20 02:46:24;;;;;;;12.80;8.00;;;6.20;99.90;;;;;;5033158;28;20659;-86
2022/12/20 02:48:51;;;;;;;17.70;8.50;;;6.20;99.90;;;;;;5014723;28;20718;-87
2022/12/20 02:51:20;;;;;;;15.07;8.47;;;6.30;99.90;;;;;;5016121;28;20192;-86
2022/12/20 02:53:46;;;;;;;11.53;7.63;;;6.30;99.90;;;;;;5018780;28;20170;-85
2022/12/20 02:56:22;;;;;;;14.47;8.20;;;6.30;99.90;;;;;;5018985;28;20312;-87
2022/12/20 02:58:55;;;;;;;13.27;7.40;;;6.30;99.90;;;;;;5018742;28;20308;-88
2022/12/20 03:01:39;;;;;;;11.70;7.77;;;6.30;99.90;;;;;;5018798;28;20213;-89
2022/12/20 03:04:07;;;;;;;13.00;6.87;;;6.30;99.90;;;;;;5019272;28;20188;-88
2022/12/20 03:06:32;;;;;;;12.87;7.63;;;6.40;99.90;;;;;;5018484;28;20178;-88
2022/12/20 03:08:58;;;;;;;15.50;7.50;;;6.30;99.90;;;;;;5018904;28;20177;-88
2022/12/20 03:11:24;;;;;;;15.10;7.57;;;6.20;99.90;;;;;;5036615;28;20613;-88
2022/12/20 03:13:50;;;;;;;11.63;6.70;;;6.20;99.90;;;;;;5036037;28;20174;-91
2022/12/20 03:16:16;;;;;;;11.67;6.97;;;6.20;99.90;;;;;;5017991;28;21064;-88
2022/12/20 03:18:41;;;;;;;13.10;6.93;;;6.20;99.90;;;;;;5017857;28;20213;-88
2022/12/20 03:21:07;;;;;;;12.37;7.07;;;6.20;99.90;;;;;;5018473;28;20207;-88
2022/12/20 03:23:33;;;;;;;12.20;7.27;;;6.30;99.90;;;;;;5018677;28;20651;-88
2022/12/20 03:25:58;;;;;;;11.10;7.17;;;6.30;99.90;;;;;;5018424;28;20174;-87
2022/12/20 03:28:24;;;;;;;11.23;7.00;;;6.30;99.90;;;;;;5017639;28;20768;-87
2022/12/20 03:30:50;;;;;;;10.77;7.27;;;6.40;99.90;;;;;;5035476;28;20166;-87
2022/12/20 03:33:15;;;;;;;12.53;7.77;;;6.30;99.90;;;;;;5035161;28;20758;-87
2022/12/20 03:35:41;;;;;;;15.67;7.50;;;6.40;99.90;;;;;;5036221;28;20630;-88
2022/12/20 03:38:07;;;;;;;11.83;6.93;;;6.30;99.90;;;;;;5017973;28;20737;-87
2022/12/20 03:40:33;;;;;;;11.40;7.37;;;6.40;99.90;;;;;;5035974;28;20170;-88
2022/12/20 03:42:58;;;;;;;11.17;7.13;;;6.40;99.90;;;;;;5017467;28;20186;-86
2022/12/20 03:45:24;;;;;;;10.77;6.23;;;6.40;99.90;;;;;;5017646;28;20639;-87
2022/12/20 03:47:50;;;;;;;11.83;6.57;;;6.40;99.90;;;;;;5018096;28;20174;-88
2022/12/20 03:50:16;;;;;;;11.37;6.77;;;6.40;99.90;;;;;;5035686;28;20180;-88
2022/12/20 03:52:41;;;;;;;11.50;7.27;;;6.40;99.90;;;;;;5017724;28;20699;-88
2022/12/20 03:55:08;;;;;;;15.13;7.13;;;6.40;99.90;;;;;;5017432;28;20754;-88
2022/12/20 03:57:34;;;;;;;15.37;7.73;;;6.40;99.90;;;;;;5035065;28;20512;-89
2022/12/20 04:00:00;;;;;;;11.90;7.33;;;6.50;99.90;;;;;;5017707;28;21229;-87
2022/12/20 04:02:26;;;;;;;11.53;6.80;;;6.50;99.90;;;;;;5017074;28;20257;-89
2022/12/20 04:04:52;;;;;;;11.03;7.17;;;6.50;99.90;;;;;;5017412;28;20189;-89
2022/12/20 04:07:17;;;;;;;12.70;6.87;;;6.60;99.90;;;;;;5014267;28;20226;-89
2022/12/20 04:09:43;;;;;;;10.03;6.50;;;6.60;99.90;;;;;;5014443;28;20298;-89
2022/12/20 04:12:09;;;;;;;11.13;7.13;;;6.60;99.90;;;;;;5014457;28;20208;-90
2022/12/20 04:14:36;;;;;;;12.13;6.70;;;6.70;99.90;;;;;;5014604;28;20186;-87
2022/12/20 04:17:02;;;;;;;12.40;6.90;;;6.60;99.90;;;;;;5014350;28;20222;-88
2022/12/20 04:19:28;;;;;;;10.93;6.97;;;6.60;99.90;;;;;;5013788;28;20276;-88
2022/12/20 04:21:55;;;;;;;12.33;7.17;;;6.60;99.90;;;;;;5013773;28;20898;-89
2022/12/20 04:24:20;;;;;;;11.93;6.93;;;6.60;99.90;;;;;;5014023;28;20182;-88
2022/12/20 04:26:48;;;;;;;13.80;6.87;;;6.60;99.90;;;;;;5014421;28;20181;-88
2022/12/20 04:29:14;;;;;;;12.80;6.83;;;6.60;99.90;;;;;;5014101;28;20266;-86
2022/12/20 04:31:40;;;;;;;11.77;6.67;;;6.70;99.90;;;;;;5013397;28;20178;-87
2022/12/20 04:34:05;;;;;;;11.67;6.60;;;6.80;99.90;;;;;;5014346;28;20170;-89
2022/12/20 04:36:31;;;;;;;12.77;6.73;;;6.80;99.90;;;;;;5013238;28;20625;-87
2022/12/20 04:38:57;;;;;;;10.30;5.60;;;6.90;99.90;;;;;;5015101;28;20222;-87
2022/12/20 04:41:23;;;;;;;9.43;6.30;;;7.00;99.90;;;;;;5013318;28;20265;-88
2022/12/20 04:43:50;;;;;;;10.43;6.23;;;7.10;99.90;;;;;;5012858;28;21366;-87
2022/12/20 04:46:16;;;;;;;8.83;6.20;;;7.20;99.90;;;;;;5012646;28;20265;-89
2022/12/20 04:48:42;;;;;;;9.03;6.40;;;7.20;99.90;;;;;;5012674;28;20210;-87
2022/12/20 04:51:08;;;;;;;10.33;6.40;;;7.30;99.90;;;;;;5014641;28;20589;-89
2022/12/20 04:53:48;;;;;;;10.90;5.97;;;7.40;99.90;;;;;;5013283;28;20493;-88
2022/12/20 04:56:20;;;;;;;9.77;6.03;;;7.40;99.90;;;;;;5013324;28;21293;-87
2022/12/20 04:58:48;;;;;;;12.07;6.20;;;7.40;99.90;;;;;;5012633;28;20221;-89
2022/12/20 05:01:14;;;;;;;8.70;6.13;;;7.40;99.90;;;;;;5012329;28;20182;-87
2022/12/20 05:03:40;;;;;;;10.10;5.90;;;7.30;99.90;;;;;;4994928;28;20253;-89
2022/12/20 05:06:06;;;;;;;12.03;5.73;;;7.30;99.90;;;;;;4993440;28;20175;-89
2022/12/20 05:08:32;;;;;;;12.33;6.17;;;7.40;99.90;;;;;;4996636;28;20245;-88
2022/12/20 05:10:58;;;;;;;11.03;6.17;;;7.40;99.90;;;;;;5014195;28;20170;-87
2022/12/20 05:13:24;;;;;;;11.53;6.17;;;7.50;99.90;;;;;;4995815;28;20257;-88
2022/12/20 05:15:54;;;;;;;9.40;6.00;;;7.50;99.90;;;;;;5013898;28;20952;-88
2022/12/20 05:18:21;;;;;;;10.60;6.20;;;7.50;99.90;;;;;;4997108;28;20591;-87
2022/12/20 05:20:47;;;;;;;8.03;5.60;;;7.50;99.90;;;;;;4996187;28;20536;-87
2022/12/20 05:26:16;;;;;;;7.97;5.23;;;7.50;99.90;;;;;;5013281;28;20232;-88
2022/12/20 05:28:42;;;;;;;9.20;5.17;;;7.50;99.90;;;;;;4996341;28;20228;-86
2022/12/20 05:31:07;;;;;;;10.67;5.93;;;7.50;99.90;;;;;;4996603;28;20757;-86
2022/12/20 05:33:33;;;;;;;11.23;5.80;;;7.50;99.90;;;;;;4996246;28;20579;-87
2022/12/20 05:35:59;;;;;;;9.90;5.90;;;7.60;99.90;;;;;;4995770;28;20186;-86
2022/12/20 05:38:25;;;;;;;13.07;5.80;;;7.70;99.90;;;;;;5013155;28;20237;-87
2022/12/20 05:40:51;;;;;;;13.53;6.03;;;7.70;99.90;;;;;;4995875;28;20641;-88
2022/12/20 05:43:18;;;;;;;10.97;6.17;;;7.60;99.90;;;;;;5013093;28;20178;-87
2022/12/20 05:45:48;;;;;;;13.00;7.07;;;7.70;99.90;;;;;;4995974;28;20244;-84
2022/12/20 05:48:15;;;;;;;10.93;6.73;;;7.70;99.90;;;;;;4995686;28;20277;-87
2022/12/20 05:50:45;;;;;;;10.37;6.20;;;7.80;99.90;;;;;;4994937;28;20194;-87
2022/12/20 05:53:12;;;;;;;14.53;6.67;;;7.70;99.90;;;;;;4995579;28;20187;-86
2022/12/20 05:55:46;;;;;;;12.93;6.63;;;7.70;99.90;;;;;;5013571;28;20759;-86
2022/12/20 05:58:12;;;;;;;12.17;7.17;;;7.70;99.90;;;;;;4996005;28;20206;-87
2022/12/20 06:00:40;;;;;;;10.73;6.33;;;7.70;99.90;;;;;;4996692;28;20182;-88
2022/12/20 06:03:08;;;;;;;10.13;6.97;;;7.70;99.90;;;;;;4995929;28;20171;-86
2022/12/20 06:05:37;;;;;;;14.97;7.70;;;7.80;99.90;;;;;;4995365;28;20529;-86
2022/12/20 06:08:05;;;;;;;10.23;6.70;;;7.70;99.90;;;;;;4996204;28;20314;-87
2022/12/20 06:10:33;;;;;;;14.37;7.87;;;7.70;99.90;;;;;;4996136;28;20179;-87
2022/12/20 06:12:59;;;;;;;12.07;7.57;;;7.80;99.90;;;;;;4996028;28;20174;-87
2022/12/20 06:15:25;;;;;;;13.30;8.10;;;7.70;99.90;;;;;;4995262;28;20341;-91
2022/12/20 06:17:51;;;;;;;13.57;7.80;;;7.70;99.90;;;;;;5012382;28;20242;-84
2022/12/20 06:20:17;;;;;;;13.30;8.00;;;7.60;99.90;;;;;;4996092;28;20676;-87
2022/12/20 06:22:43;;;;;;;13.67;7.83;;;7.60;99.90;;;;;;4997082;28;20178;-91
2022/12/20 06:25:11;;;;;;;11.33;7.67;;;7.60;99.90;;;;;;4997054;28;20209;-89
2022/12/20 06:27:37;;;;;;;12.00;7.60;;;7.60;99.90;;;;;;5019297;28;20976;-89
2022/12/20 06:30:09;;;;;;;13.93;7.87;;;7.50;99.90;;;;;;5002042;28;20594;-89
2022/12/20 06:32:35;;;;;;;12.27;7.20;;;7.50;99.90;;;;;;5021297;28;20179;-91
2022/12/20 06:35:01;;;;;;;12.27;7.57;;;7.50;99.90;;;;;;5002935;28;20289;-88
2022/12/20 06:37:27;;;;;;;12.97;8.13;;;7.60;99.90;;;;;;5003566;28;20174;-89
2022/12/20 06:39:53;;;;;;;10.17;7.20;;;7.60;99.90;;;;;;5021477;28;20192;-88
2022/12/20 06:42:18;;;;;;;12.67;7.60;;;7.60;99.90;;;;;;5002540;28;20174;-91
2022/12/20 06:44:44;;;;;;;11.60;7.73;;;7.50;99.90;;;;;;5003010;28;20244;-90
2022/12/20 06:47:10;;;;;;;12.87;7.90;;;7.50;99.90;;;;;;5021323;28;20170;-90
2022/12/20 06:49:36;;;;;;;12.90;7.57;;;7.50;99.90;;;;;;5020987;28;20240;-89
2022/12/20 06:52:02;;;;;;;13.00;7.67;;;7.50;99.90;;;;;;5000498;28;20179;-88
2022/12/20 06:54:27;;;;;;;11.80;8.33;;;7.50;99.90;;;;;;5002218;28;20631;-91
2022/12/20 06:56:53;;;;;;;12.60;7.80;;;7.50;99.90;;;;;;5003082;28;20190;-90
2022/12/20 06:59:19;;;;;;;12.10;7.83;;;7.50;99.90;;;;;;5003153;28;20325;-90
2022/12/20 07:01:45;;;;;;;11.67;7.00;;;7.40;99.90;;;;;;5035285;28;20629;-91
2022/12/20 07:04:10;;;;;;;12.47;7.60;;;7.50;99.90;;;;;;5040484;28;20193;-91
2022/12/20 07:06:36;;;;;;;13.67;7.70;;;7.50;99.90;;;;;;5022901;28;20174;-90
2022/12/20 07:09:02;;;;;;;12.03;7.00;;;7.50;99.90;;;;;;5041837;28;20294;-90
2022/12/20 07:11:28;;;;;;;11.33;7.17;;;7.50;99.90;;;;;;5060383;28;20170;-90
2022/12/20 07:13:55;;;;;;;11.13;7.00;;;7.50;99.90;;;;;;5036820;28;20236;-90
2022/12/20 07:16:22;;;;;;;14.67;7.67;;;7.50;99.90;;;;;;5022234;28;20296;-90
2022/12/20 07:18:52;;;;;;;13.23;7.73;;;7.50;99.90;;;;;;5021426;28;20244;-92
2022/12/20 07:21:19;;;;;;;10.90;6.70;;;7.50;99.90;;;;;;5038522;28;20189;-92
2022/12/20 07:23:45;;;;;;;14.17;7.00;;;7.50;99.90;;;;;;5022417;28;20189;-89
2022/12/20 07:26:12;;;;;;;12.83;7.27;;;7.50;99.90;;;;;;5022600;28;20177;-91
2022/12/20 07:28:38;;;;;;;13.13;7.50;;;7.50;99.90;;;;;;5022413;28;20183;-93
2022/12/20 07:31:04;;;;;;;13.30;7.40;;;7.50;99.90;;;;;;5038141;28;20684;-93
2022/12/20 07:33:30;;;;;;;10.00;6.80;;;7.50;99.90;;;;;;5021603;28;20182;-90
2022/12/20 07:36:05;;;;;;;12.83;6.93;;;7.60;99.90;;;;;;5022346;28;20182;-92
2022/12/20 07:38:31;;;;;;;10.73;6.83;;;7.60;99.90;;;;;;5037677;28;20293;-90
2022/12/20 07:40:57;;;;;;;10.20;6.53;;;7.70;99.90;;;;;;5037305;28;20183;-88
2022/12/20 07:43:24;;;;;;;11.20;6.57;;;7.70;99.90;;;;;;5018406;28;20185;-90
2022/12/20 07:45:56;;;;;;;13.10;6.60;;;7.70;99.90;;;;;;5018256;28;20183;-90
2022/12/20 07:48:23;;;;;;;12.67;6.47;;;7.70;99.90;;;;;;5019057;28;20189;-89
2022/12/20 07:50:56;;;;;;;10.77;6.67;;;7.60;99.90;;;;;;5019106;28;20262;-90
2022/12/20 07:53:24;;;;;;;10.80;6.70;;;7.60;99.90;;;;;;5019031;28;20273;-91
2022/12/20 07:55:50;;;;;;;10.27;6.33;;;7.60;99.90;;;;;;5018797;28;20189;-91
2022/12/20 07:58:17;;;;;;;14.73;7.63;;;7.60;99.90;;;;;;5018029;28;20209;-91
2022/12/20 08:00:44;;;;;;;10.53;7.10;;;7.50;99.90;;;;;;5018636;28;20195;-87
2022/12/20 08:03:38;;;;;;;11.80;6.87;;;7.50;99.90;;;;;;5018847;28;20179;-91
2022/12/20 08:06:06;;;;;;;11.77;6.90;;;7.50;99.90;;;;;;5034012;28;20187;-91
2022/12/20 08:08:34;;;;;;;10.80;6.93;;;7.50;99.90;;;;;;5018197;28;20234;-88
2022/12/20 08:11:02;;;;;;;10.10;6.70;;;7.50;99.90;;;;;;5017869;28;20186;-91
2022/12/20 08:13:28;;;;;;;8.60;6.63;;;7.50;99.90;;;;;;5017884;28;20269;-89
2022/12/20 08:15:54;;;;;;;11.00;7.03;;;7.50;99.90;;;;;;5018763;28;20209;-92
2022/12/20 08:18:19;;;;;;;13.33;6.63;;;7.50;99.90;;;;;;5018687;28;20214;-92
2022/12/20 08:20:45;;;;;;;9.03;6.40;;;7.50;99.90;;;;;;5017549;28;20277;-91
2022/12/20 08:23:11;;;;;;;16.77;6.77;;;7.50;99.90;;;;;;5023808;28;20273;-92
2022/12/20 08:25:38;;;;;;;12.23;7.30;;;7.50;99.90;;;;;;5035035;28;20179;-90
2022/12/20 08:28:03;;;;;;;16.80;8.17;;;7.50;99.90;;;;;;5026498;28;20606;-93
2022/12/20 08:30:29;;;;;;;10.13;7.00;;;7.50;99.90;;;;;;5023039;28;20252;-91
2022/12/20 08:32:55;;;;;;;11.97;7.03;;;7.50;99.90;;;;;;5018667;28;20218;-90
2022/12/20 08:35:21;;;;;;;9.67;7.00;;;7.50;99.90;;;;;;5025740;28;20186;-92
2022/12/20 08:37:50;;;;;;;11.07;6.87;;;7.50;99.90;;;;;;5035630;28;20261;-92
2022/12/20 08:40:16;;;;;;;11.03;6.23;;;7.50;99.90;;;;;;5034895;28;20189;-89
2022/12/20 08:42:41;;;;;;;11.70;6.27;;;7.60;99.90;;;;;;5035040;28;20175;-92
2022/12/20 08:45:07;;;;;;;9.93;6.23;;;7.60;99.90;;;;;;5034747;28;20190;-94
2022/12/20 08:47:33;;;;;;;10.17;6.43;;;7.60;99.90;;;;;;5035256;28;20205;-92
2022/12/20 08:49:59;;;;;;;12.17;6.43;;;7.60;99.90;;;;;;5034082;28;20178;-91
2022/12/20 08:52:27;;;;;;;12.63;6.60;;;7.60;99.90;;;;;;5034933;28;20210;-91
2022/12/20 08:54:52;;;;;;;10.70;6.90;;;7.60;99.90;;;;;;5035852;28;20178;-92
2022/12/20 08:57:18;;;;;;;9.27;6.10;;;7.70;99.90;;;;;;5034638;28;20512;-91
2022/12/20 08:59:43;;;;;;;10.63;6.33;;;7.70;99.90;;;;;;5035394;28;20210;-92
2022/12/20 09:02:09;;;;;;;10.83;6.37;;;7.80;99.90;;;;;;5018112;28;20186;-93
2022/12/20 09:04:35;;;;;;;10.60;6.23;;;7.80;99.90;;;;;;5017966;28;20178;-91
2022/12/20 09:07:01;;;;;;;12.10;6.27;;;7.80;99.90;;;;;;5024176;28;20212;-92
2022/12/20 09:09:27;;;;;;;10.53;5.40;;;7.80;99.90;;;;;;5033819;28;20205;-91
2022/12/20 09:11:52;;;;;;;10.37;6.10;;;7.80;99.90;;;;;;5028312;28;20553;-92
2022/12/20 09:14:18;;;;;;;9.60;5.80;;;7.80;99.90;;;;;;5035252;28;20609;-92
2022/12/20 09:16:44;;;;;;;7.90;5.20;;;7.80;99.90;;;;;;5017618;28;20625;-94
2022/12/20 09:19:13;;;;;;;7.93;5.73;;;7.70;99.90;;;;;;5017679;28;20222;-94
2022/12/20 09:21:39;;;;;;;9.90;5.80;;;7.80;99.90;;;;;;5017303;28;20328;-94
2022/12/20 09:24:05;;;;;;;10.10;5.07;;;7.70;99.90;;;;;;5017511;28;20197;-93
2022/12/20 09:26:33;;;;;;;7.67;5.20;;;7.70;99.90;;;;;;5017603;28;20182;-94
2022/12/20 09:29:00;;;;;;;10.13;6.17;;;7.70;99.90;;;;;;5017624;28;20193;-92
2022/12/20 09:31:27;;;;;;;9.27;5.60;;;7.80;99.90;;;;;;5017693;28;20273;-94
2022/12/20 09:33:54;;;;;;;9.10;5.47;;;7.80;99.90;;;;;;5017332;28;20612;-95
2022/12/20 09:36:22;;;;;;;12.63;5.70;;;7.80;99.90;;;;;;5017050;28;20199;-94
2022/12/20 09:38:48;;;;;;;12.17;5.50;;;7.80;99.90;;;;;;5017567;28;20215;-93
2022/12/20 09:41:22;;;;;;;10.83;5.83;;;7.80;99.90;;;;;;5017558;28;20271;-92
2022/12/20 09:43:48;;;;;;;12.33;5.63;;;7.80;99.90;;;;;;5035018;28;20193;-92
2022/12/20 09:46:15;;;;;;;8.83;5.37;;;7.90;99.90;;;;;;5035099;28;20202;-92
2022/12/20 09:48:42;;;;;;;13.50;5.47;;;8.00;99.90;;;;;;5017040;28;20170;-91
2022/12/20 09:51:14;;;;;;;11.30;5.70;;;8.00;99.90;;;;;;5017191;28;20198;-91
2022/12/20 09:54:00;;;;;;;9.17;5.20;;;8.00;99.90;;;;;;5032142;28;20220;-92
2022/12/20 09:56:57;;;;;;;8.03;5.13;;;8.10;99.90;;;;;;5034929;28;20246;-94
2022/12/20 09:59:23;;;;;;;13.73;5.60;;;8.20;99.90;;;;;;4964324;28;20232;-93
2022/12/20 10:01:49;;;;;;;15.57;5.50;;;8.30;99.90;;;;;;5022305;28;20507;-91
2022/12/20 10:04:23;;;;;;;8.93;5.03;;;8.30;99.90;;;;;;5034289;28;20194;-91
2022/12/20 10:07:16;;;;;;;9.50;4.63;;;8.30;99.90;;;;;;5033158;28;20628;-90
2022/12/20 10:10:00;;;;;;;8.80;4.70;;;8.40;99.90;;;;;;5034900;28;20228;-91
2022/12/20 10:12:52;;;;;;;10.20;4.83;;;8.40;99.90;;;;;;5034347;28;20257;-89
2022/12/20 10:15:21;;;;;;;6.40;4.30;;;8.50;99.90;;;;;;5033409;28;20178;-90
2022/12/20 10:17:53;;;;;;;6.57;4.07;;;8.40;99.90;;;;;;5034366;28;20945;-92
2022/12/20 10:20:31;;;;;;;7.73;4.70;;;8.50;99.90;;;;;;5016037;28;20265;-91
2022/12/20 10:23:22;;;;;;;5.90;3.97;;;8.60;99.90;;;;;;5016737;28;20321;-89
2022/12/20 10:25:50;;;;;;;8.67;4.10;;;8.70;99.90;;;;;;5016762;28;20195;-92
2022/12/20 10:28:24;;;;;;;8.38;4.40;;;8.80;99.90;;;;;;5016745;28;20183;-91
2022/12/20 10:30:50;;;;;;;6.83;4.00;;;8.80;99.90;;;;;;5016702;28;20624;-94
2022/12/20 10:33:20;;;;;;;10.13;4.37;;;8.90;99.90;;;;;;5016971;28;20193;-89
2022/12/20 10:35:49;;;;;;;9.30;4.27;;;9.00;99.90;;;;;;5016492;28;20174;-87
2022/12/20 10:38:17;;;;;;;7.10;4.30;;;9.00;99.90;;;;;;5034189;28;20198;-90
2022/12/20 10:40:47;;;;;;;9.98;4.00;;;9.10;99.90;;;;;;5016811;28;20205;-88
2022/12/20 10:43:21;;;;;;;5.90;3.90;;;9.20;99.90;;;;;;5016486;28;20170;-89
2022/12/20 10:46:07;;;;;;;6.03;3.27;;;9.30;99.90;;;;;;5016153;28;20648;-87
2022/12/20 10:48:36;;;;;;;5.90;3.60;;;9.30;99.90;;;;;;5016402;28;20179;-89
2022/12/20 10:51:11;;;;;;;9.40;4.07;;;9.30;99.90;;;;;;5033948;28;20573;-88
2022/12/20 10:54:02;;;;;;;12.10;4.53;;;9.40;99.90;;;;;;5016407;28;20261;-94
2022/12/20 10:56:30;;;;;;;8.07;4.30;;;9.30;99.90;;;;;;5015982;28;20182;-89
2022/12/20 10:59:01;;;;;;;9.45;4.07;;;9.30;99.90;;;;;;5016003;28;20217;-90
2022/12/20 11:01:34;;;;;;;8.57;4.65;;;9.30;99.90;;;;;;5015978;28;20566;-89
2022/12/20 11:04:23;;;;;;;7.03;3.78;;;9.30;99.90;;;;;;5016070;28;20235;-89
2022/12/20 11:06:49;;;;;;;7.40;4.30;;;9.30;99.90;;;;;;5019135;28;20554;-89
2022/12/20 11:09:35;;;;;;;7.90;3.33;;;9.30;99.90;;;;;;5035947;28;20185;-89
2022/12/20 11:12:10;;;;;;;5.80;3.73;;;9.30;99.90;;;;;;5036640;28;20173;-88
2022/12/20 11:14:37;;;;;;;7.67;3.60;;;9.30;99.90;;;;;;5030896;28;20224;-91
2022/12/20 11:17:36;;;;;;;5.68;3.50;;;9.40;99.90;;;;;;5035805;28;20196;-88
2022/12/20 11:20:36;;;;;;;8.35;4.10;;;9.40;99.90;;;;;;5039565;28;20178;-88
2022/12/20 11:23:20;;;;;;;9.05;3.85;;;9.50;99.90;;;;;;5039572;28;20236;-90
2022/12/20 11:26:17;;;;;;;7.57;4.20;;;9.60;99.90;;;;;;5039685;28;20166;-88
2022/12/20 11:29:08;;;;;;;7.25;3.50;;;9.60;99.90;;;;;;5039764;28;20516;-91
2022/12/20 11:31:59;;;;;;;9.80;3.10;;;9.60;99.90;;;;;;4998280;28;20199;-89
2022/12/20 11:34:33;;;;;;;8.35;3.20;;;9.60;99.90;;;;;;5016248;28;20182;-89
2022/12/20 11:37:07;;;;;;;6.38;3.50;;;9.70;99.90;;;;;;5016413;28;20179;-91
2022/12/20 11:39:44;;;;;;;7.20;3.33;;;9.70;99.90;;;;;;5016065;28;20215;-90
2022/12/20 11:42:50;;;;;;;7.82;3.33;;;9.80;99.90;;;;;;5016230;28;20167;-89
2022/12/20 11:45:30;;;;;;;5.77;3.63;;;9.80;99.90;;;;;;5012941;28;20562;-90
2022/12/20 11:48:14;;;;;;;11.03;3.80;;;9.90;99.90;;;;;;5019447;28;20174;-91
2022/12/20 11:51:17;;;;;;;6.72;3.67;;;9.90;99.90;;;;;;5036951;28;20185;-91
2022/12/20 11:53:56;;;;;;;11.20;5.00;;;9.90;99.90;;;;;;5033106;28;20886;-89
2022/12/20 11:56:35;;;;;;;9.23;4.40;;;9.90;99.90;;;;;;5020255;28;20232;-90
2022/12/20 11:59:09;;;;;;;10.88;4.00;;;9.90;99.90;;;;;;5015742;28;20641;-91
2022/12/20 12:02:06;;;;;;;5.72;3.53;;;10.00;99.90;;;;;;5018456;28;20174;-87
2022/12/20 12:04:45;;;;;;;9.43;4.30;;;10.10;99.90;;;;;;5005541;28;20190;-91
2022/12/20 12:07:18;;;;;;;5.55;3.33;;;10.00;99.90;;;;;;5018548;28;20308;-88
2022/12/20 12:10:12;;;;;;;5.03;3.20;;;10.00;99.90;;;;;;5018608;28;20177;-89
2022/12/20 12:12:56;;;;;;;6.85;2.88;;;10.00;99.90;;;;;;5002403;28;20183;-90
2022/12/20 12:15:35;;;;;;;4.13;2.70;;;10.00;99.90;;;;;;5018382;28;20225;-88
2022/12/20 12:18:18;;;;;;;5.53;2.90;;;10.10;99.90;;;;;;5018345;28;20201;-89
2022/12/20 12:20:47;;;;;;;7.43;3.03;;;10.00;99.90;;;;;;5018368;28;20630;-89
2022/12/20 12:23:25;;;;;;;8.17;3.23;;;10.00;99.90;;;;;;5018013;28;20183;-87
2022/12/20 12:25:51;;;;;;;5.97;2.80;;;9.90;99.90;;;;;;5017985;28;20220;-87
2022/12/20 12:28:19;;;;;;;5.45;3.10;;;9.90;99.90;;;;;;5018521;28;20170;-90
2022/12/20 12:31:00;;;;;;;5.68;3.15;;;9.90;99.90;;;;;;5035642;28;20189;-90
2022/12/20 12:33:34;;;;;;;4.97;3.00;;;9.90;99.90;;;;;;5018046;28;20202;-90
2022/12/20 12:36:18;;;;;;;6.32;2.85;;;10.00;99.90;;;;;;5018122;28;20228;-89
2022/12/20 12:39:23;;;;;;;6.47;3.17;;;10.10;99.90;;;;;;5017776;28;20821;-90
2022/12/20 12:42:10;;;;;;;6.18;2.97;;;10.10;99.90;;;;;;5016547;28;20191;-90
2022/12/20 12:44:50;;;;;;;6.68;3.25;;;10.10;99.90;;;;;;5035404;28;20182;-91
2022/12/20 12:47:28;;;;;;;5.05;2.83;;;10.20;99.90;;;;;;5035810;28;20186;-88
2022/12/20 12:49:55;;;;;;;7.65;3.78;;;10.10;99.90;;;;;;5017813;28;20178;-88
2022/12/20 12:52:42;;;;;;;4.75;2.88;;;10.10;99.90;;;;;;5035370;28;20178;-89
2022/12/20 12:55:38;;;;;;;6.80;3.33;;;10.10;99.90;;;;;;5003743;28;20178;-89
2022/12/20 12:58:22;;;;;;;6.85;3.20;;;10.10;99.90;;;;;;5009643;28;20659;-91
2022/12/20 13:00:56;;;;;;;7.63;3.90;;;10.10;99.90;;;;;;5008063;28;20182;-96
2022/12/20 13:03:37;;;;;;;5.38;3.40;;;10.10;99.90;;;;;;5017620;28;20228;-92
2022/12/20 13:06:22;;;;;;;6.57;3.80;;;10.10;99.90;;;;;;5017708;28;20189;-89
2022/12/20 13:08:55;;;;;;;6.63;3.40;;;10.10;99.90;;;;;;5017467;28;20229;-90
2022/12/20 13:11:39;;;;;;;6.47;3.05;;;10.10;99.90;;;;;;5027577;28;20223;-89
2022/12/20 13:14:23;;;;;;;5.90;2.95;;;10.00;99.90;;;;;;5010737;28;20229;-88